CDT,Max TemperatureF,Mean TemperatureF,Min TemperatureF,Max Dew PointF,MeanDew PointF,Min DewpointF,Max Humidity, Mean Humidity, Min Humidity, Max Sea Level PressureIn, Mean Sea Level PressureIn, Min Sea Level PressureIn, Max VisibilityMiles, Mean VisibilityMiles, Min VisibilityMiles, Max Wind SpeedMPH, Mean Wind SpeedMPH, Max Gust SpeedMPH,PrecipitationIn, CloudCover, Events, WindDirDegrees
2013-7-1,82,74,66,64,62,58,88,73,45,29.94,29.89,29.83,10,10,8,17,9,23,0.01,6,Rain,349
2013-7-2,78,70,63,61,60,58,84,69,57,30.05,29.98,29.91,10,9,8,17,7,24,0.00,4,,331
2013-7-3,86,70,59,62,56,54,84,65,39,30.11,30.06,30.01,10,10,6,8,3,,0.00,1,,350
2013-7-4,88,74,61,67,62,57,88,67,40,30.07,30.02,29.96,10,8,2,17,3,25,0.02,2,Thunderstorm,46
2013-7-5,87,76,68,70,67,60,94,75,51,30.08,30.03,29.97,10,8,3,10,2,,0.00,2,,75
2013-7-6,88,77,66,70,66,62,90,69,51,30.07,30.02,29.96,10,10,8,9,1,,0.00,2,,176
2013-7-7,91,78,66,72,68,64,90,69,42,30.07,30.03,30.00,10,10,6,9,3,,0.00,1,,175
2013-7-8,93,82,71,72,70,68,91,67,44,30.11,30.06,30.02,10,10,7,9,2,,0.00,0,,203
2013-7-9,95,84,73,75,73,71,91,67,49,30.07,30.02,29.94,10,10,7,13,4,16,0.00,0,,200
2013-7-10,91,86,80,75,74,71,85,72,54,30.01,29.95,29.88,10,10,8,8,5,30,0.00,2,Rain-Thunderstorm,246
2013-7-11,89,80,71,75,68,60,89,66,43,30.01,29.96,29.92,10,10,10,20,5,31,0.00,2,,28
2013-7-12,87,75,64,62,59,55,81,58,35,30.08,30.03,29.99,10,10,10,12,6,17,0.00,0,,38
2013-7-13,88,75,63,65,60,55,87,61,35,30.05,30.02,29.98,10,10,10,12,3,17,0.00,1,,41
2013-7-14,89,78,68,71,67,62,85,69,51,30.10,30.05,30.00,10,9,7,12,4,,0.00,3,Rain-Thunderstorm,73
2013-7-15,91,82,73,75,72,70,90,76,54,30.20,30.16,30.09,10,9,2,10,6,20,0.14,5,Rain,129
2013-7-16,93,83,73,73,71,69,91,70,47,30.27,30.23,30.19,10,10,8,8,2,,0.00,1,,87
2013-7-17,96,84,73,74,71,66,90,65,37,30.30,30.24,30.16,10,10,6,9,1,,0.00,0,,68
2013-7-18,96,84,75,74,72,70,87,70,47,30.19,30.10,30.04,10,9,4,13,2,16,0.01,1,Rain-Thunderstorm,120
2013-7-19,91,81,71,72,70,68,94,72,50,30.05,29.99,29.91,10,8,2,9,3,,0.00,0,,192
2013-7-20,93,82,73,73,71,67,91,73,48,29.92,29.89,29.80,10,9,6,18,4,30,0.00,0,Thunderstorm,208
2013-7-21,82,76,71,74,70,68,94,86,69,29.95,29.90,29.85,10,6,0,15,3,26,2.00,5,Fog-Rain-Thunderstorm,297
2013-7-22,90,80,71,79,72,69,94,82,55,29.89,29.85,29.79,10,9,1,12,3,,0.68,6,Rain-Thunderstorm,209
2013-7-23,89,80,71,74,69,64,94,81,53,29.92,29.86,29.79,10,7,0,25,8,39,1.44,4,Rain-Thunderstorm,224
2013-7-24,84,76,68,70,67,60,93,76,47,30.00,29.92,29.85,10,10,7,10,5,17,0.00,3,,18
2013-7-25,84,73,62,68,60,57,87,67,44,30.09,30.05,30.00,10,10,10,10,3,,0.00,0,,1
2013-7-26,81,72,64,69,65,62,91,79,56,30.06,30.03,29.97,10,10,7,8,1,,0.04,3,Rain,220
2013-7-27,86,75,64,68,64,59,90,71,46,29.99,29.95,29.91,10,10,10,13,4,17,0.00,4,,313
2013-7-28,77,67,59,65,59,56,90,74,52,30.06,30.03,29.97,10,10,10,9,2,,0.00,2,,204
2013-7-29,75,70,64,65,63,62,93,79,64,30.16,30.12,30.07,10,10,10,6,1,,0.01,1,Rain,93
2013-7-30,78,72,68,74,70,62,94,90,76,30.12,30.06,29.99,10,5,0,12,4,,1.19,7,Fog-Rain,164
2013-7-31,89,80,73,75,72,70,94,86,63,30.02,29.99,29.93,10,5,0,9,1,,0.00,6,Fog,41